Maizuru Kichijo — 7JPY — position and weather

sailwx.info

Track history (hours):
 
Tides and Currents Weather Stations Pressure Air Temp Water Temp Dewpoint Dewpoint Depression Visibility Wind Speed Wind Dir Waves Ship Positions

Maizuru Kichijo

Last reported at 2017-Oct-22 18:55 UTC. Time now 2017-Oct-22 22:54 UTC.
Position S 28°33' E 153°52'.

Length 235 m; draft 7.6 m.

Type: Cargo ship. MMSI: 432938000.

Date/timePositionNaut miles runAvg speedWind from/ knotsBaromVisibWave heightAir tempDewpointWater temp
2017-Oct-22 18:55S 28°33' E 153°52'716.4
2017-Oct-22 18:30S 28°27' E 153°53'816.4
2017-Oct-22 18:00S 28°18' E 153°53'816.3
2017-Oct-22 17:31S 28°10' E 153°53'816.1
2017-Oct-22 17:00S 28°02' E 153°54'816.0
2017-Oct-22 16:31S 27°54' E 153°54'815.9
2017-Oct-22 16:00S 27°46' E 153°55'815.5
2017-Oct-22 15:31S 27°39' E 153°55'3715.4
2017-Oct-22 13:09S 27°02' E 153°57'  
Track history (hours):
 
Tides and Currents Weather Stations Pressure Air Temp Water Temp Dewpoint Dewpoint Depression Visibility Wind Speed Wind Dir Waves Ship Positions

Maizuru Kichijo

Last reported at 2017-Oct-22 18:55 UTC. Time now 2017-Oct-22 22:54 UTC.
Position S 28°33' E 153°52'.

Length 235 m; draft 7.6 m.

Type: Cargo ship. MMSI: 432938000.

Date/timePositionNaut miles runAvg speedWind from/ knotsBaromVisibWave heightAir tempDewpointWater temp
2017-Oct-22 18:55S 28°33' E 153°52'716.4
2017-Oct-22 18:30S 28°27' E 153°53'816.4
2017-Oct-22 18:00S 28°18' E 153°53'816.3
2017-Oct-22 17:31S 28°10' E 153°53'816.1
2017-Oct-22 17:00S 28°02' E 153°54'816.0
2017-Oct-22 16:31S 27°54' E 153°54'815.9
2017-Oct-22 16:00S 27°46' E 153°55'815.5
2017-Oct-22 15:31S 27°39' E 153°55'3715.4
2017-Oct-22 13:09S 27°02' E 153°57'  

Dump ship's entire track history